createdAt,value
2018-06-14T00:01:41.068Z,12.92
2018-06-14T00:04:09.096Z,12.87
2018-06-14T00:06:37.091Z,12.85
2018-06-14T00:09:07.468Z,12.92
2018-06-14T00:11:35.457Z,12.93
2018-06-14T00:14:04.396Z,13.04
2018-06-14T00:16:32.407Z,13.07
2018-06-14T00:19:00.474Z,13.26
2018-06-14T00:21:28.466Z,13.27
2018-06-14T00:23:56.472Z,13.42
2018-06-14T00:26:24.433Z,13.49
2018-06-14T00:28:52.449Z,13.45
2018-06-14T00:31:21.096Z,13.29
2018-06-14T00:33:49.266Z,13.24
2018-06-14T00:36:17.276Z,13.39
2018-06-14T00:38:45.323Z,13.32
2018-06-14T00:41:13.318Z,13.53
2018-06-14T00:43:41.300Z,13.63
2018-06-14T00:46:09.329Z,13.67
2018-06-14T00:48:37.353Z,13.53
2018-06-14T00:51:05.358Z,13.63
2018-06-14T00:53:33.369Z,13.78
2018-06-14T00:56:01.364Z,13.84
2018-06-14T00:58:29.400Z,13.93
2018-06-14T01:00:57.392Z,14.01
2018-06-14T01:03:25.428Z,13.98
2018-06-14T01:05:53.445Z,13.98
2018-06-14T01:08:21.559Z,14.09
2018-06-14T01:10:49.569Z,14.05
2018-06-14T01:13:17.586Z,14.13
2018-06-14T01:15:45.723Z,14.23
2018-06-14T01:18:13.713Z,14.20
2018-06-14T01:20:41.724Z,14.17
2018-06-14T01:23:09.739Z,14.20
2018-06-14T01:25:37.732Z,14.38
2018-06-14T01:28:05.700Z,14.39
2018-06-14T01:30:33.776Z,14.42
2018-06-14T01:33:01.830Z,14.52
2018-06-14T01:35:30.217Z,14.47
2018-06-14T01:38:09.678Z,14.55
2018-06-14T01:40:37.708Z,14.47
2018-06-14T01:43:05.827Z,14.44
2018-06-14T01:45:34.328Z,14.27
2018-06-14T01:48:02.332Z,14.30
2018-06-14T01:50:30.341Z,14.24
2018-06-14T01:52:58.339Z,14.25
2018-06-14T01:55:29.672Z,14.19
2018-06-14T01:57:57.673Z,14.40
2018-06-14T02:00:25.660Z,14.48
2018-06-14T02:02:53.710Z,14.54
2018-06-14T02:05:21.716Z,14.56
2018-06-14T02:07:49.746Z,14.60
2018-06-14T02:10:17.775Z,14.50
2018-06-14T02:12:45.816Z,14.48
2018-06-14T02:15:13.837Z,14.28
2018-06-14T02:17:41.801Z,14.39
2018-06-14T02:20:09.813Z,14.32
2018-06-14T02:22:37.801Z,14.34
2018-06-14T02:25:05.921Z,14.27
2018-06-14T02:27:33.988Z,14.13
2018-06-14T02:30:02.004Z,14.30
2018-06-14T02:32:30.225Z,14.34
2018-06-14T02:34:58.274Z,14.23
2018-06-14T02:37:26.880Z,14.00
2018-06-14T02:39:54.898Z,13.99
2018-06-14T02:42:22.876Z,13.99
2018-06-14T02:44:50.903Z,14.15
2018-06-14T02:47:18.953Z,14.15
2018-06-14T02:49:46.907Z,14.02
2018-06-14T02:52:14.896Z,14.04
2018-06-14T02:54:42.897Z,13.92
2018-06-14T02:57:10.901Z,13.94
2018-06-14T02:59:38.937Z,14.02
2018-06-14T03:02:07.012Z,13.89
2018-06-14T03:04:35.036Z,13.81
2018-06-14T03:07:03.073Z,13.88
2018-06-14T03:09:31.072Z,13.68
2018-06-14T03:11:59.095Z,13.56
2018-06-14T03:14:27.124Z,13.55
2018-06-14T03:16:55.136Z,13.52
2018-06-14T03:19:23.125Z,13.50
2018-06-14T03:21:51.161Z,13.48
2018-06-14T03:24:19.160Z,13.60
2018-06-14T03:26:47.165Z,13.50
2018-06-14T03:29:15.329Z,13.31
2018-06-14T03:34:19.884Z,13.22
2018-06-14T03:36:47.889Z,13.25
2018-06-14T03:39:15.856Z,13.24
2018-06-14T03:41:43.840Z,13.30
2018-06-14T03:44:11.810Z,13.26
2018-06-14T03:46:39.798Z,13.27
2018-06-14T03:49:07.801Z,13.42
2018-06-14T03:51:35.842Z,13.51
2018-06-14T03:54:03.853Z,13.73
2018-06-14T03:56:31.856Z,13.95
2018-06-14T03:58:59.868Z,13.92
2018-06-14T04:01:27.852Z,13.91
2018-06-14T04:03:55.913Z,13.83
2018-06-14T04:06:23.919Z,13.91
2018-06-14T04:08:51.949Z,13.94
2018-06-14T04:11:20.061Z,14.14
2018-06-14T04:13:48.068Z,14.05
2018-06-14T04:16:16.097Z,14.13
2018-06-14T04:18:44.115Z,14.15
2018-06-14T04:21:12.141Z,14.20
2018-06-14T04:23:40.137Z,14.16
2018-06-14T04:26:08.204Z,14.37
2018-06-14T04:28:36.341Z,14.33
2018-06-14T04:31:04.436Z,14.28
2018-06-14T04:33:32.416Z,14.36
2018-06-14T04:36:00.441Z,14.35
2018-06-14T04:38:28.580Z,14.51
2018-06-14T04:40:56.806Z,14.49
2018-06-14T04:43:24.924Z,14.66
2018-06-14T04:45:52.976Z,14.71
2018-06-14T04:48:20.997Z,14.56
2018-06-14T04:50:48.993Z,14.53
2018-06-14T04:53:16.977Z,14.78
2018-06-14T04:55:44.987Z,14.88
2018-06-14T04:58:12.992Z,15.10
2018-06-14T05:00:41.020Z,15.13
2018-06-14T05:03:09.068Z,15.36
2018-06-14T05:05:37.123Z,15.57
2018-06-14T05:08:05.274Z,15.59
2018-06-14T05:10:33.275Z,15.71
2018-06-14T05:13:01.320Z,15.97
2018-06-14T05:15:29.326Z,16.18
2018-06-14T05:17:57.358Z,16.25
2018-06-14T05:20:25.345Z,16.47
2018-06-14T05:22:53.417Z,16.70
2018-06-14T05:25:21.465Z,16.89
2018-06-14T05:27:49.447Z,17.30
2018-06-14T05:30:17.424Z,17.87
2018-06-14T05:32:45.436Z,18.58
2018-06-14T05:35:13.480Z,18.86
2018-06-14T05:37:41.504Z,19.67
2018-06-14T05:40:09.498Z,20.87
2018-06-14T05:42:37.520Z,22.18
2018-06-14T05:45:05.492Z,22.82
2018-06-14T05:47:33.485Z,23.28
2018-06-14T05:50:01.468Z,23.64
2018-06-14T05:52:29.453Z,24.09
2018-06-14T05:54:57.539Z,23.95
2018-06-14T05:57:25.536Z,23.49
2018-06-14T05:59:53.517Z,23.00
2018-06-14T06:02:21.518Z,22.05
2018-06-14T06:04:49.509Z,21.72
2018-06-14T06:07:17.500Z,21.13
2018-06-14T06:09:45.512Z,21.08
2018-06-14T06:12:13.523Z,20.64
2018-06-14T06:14:41.546Z,20.65
2018-06-14T06:17:09.784Z,20.49
2018-06-14T06:19:37.828Z,20.29
2018-06-14T06:22:05.860Z,20.05
2018-06-14T06:24:33.944Z,20.60
2018-06-14T06:27:02.168Z,21.33
2018-06-14T06:29:30.353Z,21.64
2018-06-14T06:31:58.437Z,22.47
2018-06-14T06:34:26.432Z,23.15
2018-06-14T06:36:54.421Z,23.92
2018-06-14T06:39:22.414Z,24.86
2018-06-14T06:41:50.406Z,25.32
2018-06-14T06:44:18.441Z,25.43
2018-06-14T06:46:46.469Z,25.53
2018-06-14T06:49:14.576Z,25.12
2018-06-14T06:51:42.595Z,25.21
2018-06-14T06:54:11.289Z,24.72
2018-06-14T06:56:39.347Z,24.90
2018-06-14T06:59:07.357Z,24.66
2018-06-14T07:01:35.365Z,24.70
2018-06-14T07:04:03.391Z,24.80
2018-06-14T07:06:31.435Z,24.97
2018-06-14T07:08:59.458Z,24.91
2018-06-14T07:11:27.616Z,24.36
2018-06-14T07:13:55.641Z,24.02
2018-06-14T07:16:23.689Z,24.13
2018-06-14T07:18:51.765Z,23.38
2018-06-14T07:21:19.856Z,23.14
2018-06-14T07:23:47.868Z,23.27
2018-06-14T07:26:15.910Z,22.96
2018-06-14T07:28:43.932Z,23.35
2018-06-14T07:31:11.908Z,22.57
2018-06-14T07:33:39.933Z,22.63
2018-06-14T07:36:07.948Z,22.87
2018-06-14T07:38:35.971Z,23.04
2018-06-14T07:41:04.020Z,23.00
2018-06-14T07:43:32.042Z,23.06
2018-06-14T07:46:00.036Z,22.83
2018-06-14T07:48:28.057Z,22.70
2018-06-14T07:50:56.092Z,22.94
2018-06-14T07:53:24.092Z,22.90
2018-06-14T07:55:52.109Z,23.24
2018-06-14T07:58:20.143Z,23.37
2018-06-14T08:00:48.167Z,23.23
2018-06-14T08:03:16.169Z,23.17
2018-06-14T08:05:44.180Z,23.20
2018-06-14T08:08:12.183Z,23.70
2018-06-14T08:10:40.227Z,24.33
2018-06-14T08:13:08.585Z,24.54
2018-06-14T08:15:36.650Z,24.67
2018-06-14T08:18:04.643Z,24.53
2018-06-14T08:20:32.725Z,24.61
2018-06-14T08:23:00.717Z,24.64
2018-06-14T08:25:28.733Z,24.51
2018-06-14T08:27:56.722Z,24.81
2018-06-14T08:30:24.714Z,24.93
2018-06-14T08:32:52.910Z,24.87
2018-06-14T08:35:21.920Z,25.28
2018-06-14T08:37:49.944Z,24.97
2018-06-14T08:40:17.961Z,25.18
2018-06-14T08:42:45.979Z,25.46
2018-06-14T08:45:14.043Z,25.52
2018-06-14T08:47:42.080Z,24.99
2018-06-14T08:50:10.116Z,24.59
2018-06-14T08:52:38.295Z,24.88
2018-06-14T08:55:06.345Z,24.71
2018-06-14T08:57:35.360Z,25.09
2018-06-14T09:00:03.610Z,25.25
2018-06-14T09:02:32.444Z,25.11
2018-06-14T09:05:00.536Z,25.21
2018-06-14T09:07:28.790Z,25.31
2018-06-14T09:09:56.792Z,25.33
2018-06-14T09:12:24.894Z,24.77
2018-06-14T09:14:53.153Z,24.73
2018-06-14T09:17:21.176Z,24.87
2018-06-14T09:19:49.266Z,24.73
2018-06-14T09:22:17.528Z,25.00
2018-06-14T09:24:45.573Z,25.02
2018-06-14T09:27:13.596Z,25.14
2018-06-14T09:29:41.666Z,24.92
2018-06-14T09:32:09.764Z,25.11
2018-06-14T09:34:37.790Z,25.34
2018-06-14T09:37:05.965Z,25.25
2018-06-14T09:39:34.293Z,25.05
2018-06-14T09:42:02.294Z,24.87
2018-06-14T09:44:30.304Z,24.54
2018-06-14T09:46:58.337Z,24.69
2018-06-14T09:49:26.377Z,24.58
2018-06-14T09:51:54.389Z,24.27
2018-06-14T09:54:22.796Z,24.18
2018-06-14T09:56:51.097Z,24.05
2018-06-14T09:59:19.132Z,23.71
2018-06-14T10:01:47.137Z,23.83
2018-06-14T10:04:15.296Z,23.92
2018-06-14T10:06:43.453Z,24.18
2018-06-14T10:09:12.820Z,24.29
2018-06-14T10:11:40.927Z,24.58
2018-06-14T10:14:09.356Z,24.98
2018-06-14T10:16:37.408Z,25.00
2018-06-14T10:19:05.741Z,25.00
2018-06-14T10:21:33.879Z,25.03
2018-06-14T10:24:01.922Z,25.18
2018-06-14T10:26:29.965Z,25.47
2018-06-14T10:28:58.076Z,25.78
2018-06-14T10:31:26.089Z,26.01
2018-06-14T10:33:54.148Z,26.38
2018-06-14T10:36:22.168Z,26.55
2018-06-14T10:38:50.240Z,25.74
2018-06-14T10:41:18.319Z,25.47
2018-06-14T10:43:46.381Z,25.56
2018-06-14T10:46:14.412Z,25.93
2018-06-14T10:48:42.428Z,26.14
2018-06-14T10:51:10.511Z,26.44
2018-06-14T10:53:38.526Z,25.98
2018-06-14T10:56:06.560Z,25.92
2018-06-14T10:58:34.600Z,26.17
2018-06-14T11:01:02.589Z,26.08
2018-06-14T11:03:30.603Z,26.17
2018-06-14T11:05:58.739Z,25.86
2018-06-14T11:08:26.812Z,25.53
2018-06-14T11:10:54.824Z,25.53
2018-06-14T11:13:22.879Z,25.69
2018-06-14T11:15:50.902Z,25.89
2018-06-14T11:18:18.913Z,25.83
2018-06-14T11:20:46.942Z,25.66
2018-06-14T11:23:14.991Z,25.95
2018-06-14T11:25:43.091Z,25.93
2018-06-14T11:28:11.172Z,25.56
2018-06-14T11:30:39.172Z,25.27
2018-06-14T11:33:07.215Z,25.32
2018-06-14T11:35:35.209Z,25.54
2018-06-14T11:38:03.234Z,25.44
2018-06-14T11:40:31.258Z,25.61
2018-06-14T11:42:59.283Z,25.85
2018-06-14T11:45:27.308Z,25.47
2018-06-14T11:47:55.358Z,25.99
2018-06-14T11:50:23.400Z,26.55
2018-06-14T11:52:51.375Z,26.95
2018-06-14T11:55:19.490Z,26.36
2018-06-14T11:57:47.514Z,26.56
2018-06-14T12:00:15.597Z,26.38
2018-06-14T12:02:43.603Z,26.02
2018-06-14T12:05:11.628Z,25.95
2018-06-14T12:07:39.645Z,25.90
2018-06-14T12:10:07.673Z,25.57
2018-06-14T12:12:35.690Z,25.58
2018-06-14T12:15:03.803Z,25.45
2018-06-14T12:17:31.800Z,25.09
2018-06-14T12:19:59.837Z,24.99
2018-06-14T12:22:27.876Z,25.10
2018-06-14T12:24:55.957Z,25.32
2018-06-14T12:27:23.996Z,25.61
2018-06-14T12:29:52.099Z,25.68
2018-06-14T12:32:20.111Z,25.73
2018-06-14T12:34:48.180Z,26.07
2018-06-14T12:37:16.176Z,25.93
2018-06-14T12:39:44.185Z,25.87
2018-06-14T12:42:12.188Z,25.80
2018-06-14T12:44:40.204Z,25.53
2018-06-14T12:47:08.216Z,25.51
2018-06-14T12:49:36.220Z,25.52
2018-06-14T12:52:04.248Z,25.38
2018-06-14T12:54:32.260Z,25.58
2018-06-14T12:57:00.292Z,26.14
2018-06-14T12:59:28.297Z,26.45
2018-06-14T13:01:56.340Z,26.33
2018-06-14T13:04:24.358Z,26.49
2018-06-14T13:06:52.498Z,26.11
2018-06-14T13:09:20.520Z,26.30
2018-06-14T13:11:48.613Z,26.38
2018-06-14T13:14:16.600Z,26.66
2018-06-14T13:16:44.657Z,26.36
2018-06-14T13:19:12.694Z,26.19
2018-06-14T13:21:40.709Z,26.29
2018-06-14T13:24:08.749Z,26.36
2018-06-14T13:26:36.784Z,26.38
2018-06-14T13:29:04.805Z,26.46
2018-06-14T13:31:32.801Z,26.55
2018-06-14T13:34:00.848Z,26.70
2018-06-14T13:36:29.112Z,26.71
2018-06-14T13:38:57.173Z,26.45
2018-06-14T13:41:25.237Z,26.41
2018-06-14T13:43:53.252Z,26.63
2018-06-14T13:46:21.282Z,26.68
2018-06-14T13:48:49.403Z,26.84
2018-06-14T13:51:17.349Z,27.09
2018-06-14T13:53:45.460Z,27.07
2018-06-14T13:56:13.468Z,27.21
2018-06-14T13:58:41.476Z,27.45
2018-06-14T14:01:09.638Z,27.69
2018-06-14T14:03:37.505Z,27.55
2018-06-14T14:06:05.531Z,27.62
2018-06-14T14:08:33.549Z,27.34
2018-06-14T14:11:01.548Z,26.97
2018-06-14T14:13:29.562Z,27.13
2018-06-14T14:15:57.591Z,27.06
2018-06-14T14:18:25.625Z,27.04
2018-06-14T14:20:53.700Z,27.05
2018-06-14T14:23:21.756Z,26.68
2018-06-14T14:25:49.766Z,26.95
2018-06-14T14:28:17.749Z,26.70
2018-06-14T14:30:45.771Z,26.75
2018-06-14T14:33:13.809Z,26.82
2018-06-14T14:35:41.936Z,26.64
2018-06-14T14:38:09.943Z,26.75
2018-06-14T14:40:37.954Z,27.03
2018-06-14T14:43:05.942Z,27.31
2018-06-14T14:45:33.988Z,26.89
2018-06-14T14:48:02.027Z,26.72
2018-06-14T14:50:30.141Z,26.69
2018-06-14T14:52:58.153Z,26.32
2018-06-14T14:55:26.189Z,26.05
2018-06-14T14:57:54.186Z,26.25
2018-06-14T15:00:22.217Z,26.15
2018-06-14T15:02:50.225Z,26.18
2018-06-14T15:05:18.316Z,25.86
2018-06-14T15:07:46.348Z,26.08
2018-06-14T15:10:14.375Z,26.53
2018-06-14T15:12:42.424Z,26.63
2018-06-14T15:15:10.448Z,26.50
2018-06-14T15:17:38.473Z,26.44
2018-06-14T15:20:06.537Z,26.50
2018-06-14T15:22:34.599Z,26.34
2018-06-14T15:25:02.669Z,26.33
2018-06-14T15:27:30.764Z,26.31
2018-06-14T15:29:58.792Z,26.29
2018-06-14T15:32:26.899Z,25.65
2018-06-14T15:34:54.930Z,25.41
2018-06-14T15:37:23.000Z,25.39
2018-06-14T15:39:51.272Z,25.42
2018-06-14T15:42:19.371Z,25.36
2018-06-14T15:44:47.422Z,25.10
2018-06-14T15:47:15.485Z,24.97
2018-06-14T15:49:43.484Z,24.76
2018-06-14T15:52:11.501Z,24.94
2018-06-14T15:54:39.520Z,24.81
2018-06-14T15:57:07.609Z,24.83
2018-06-14T15:59:35.626Z,24.83
2018-06-14T16:02:03.629Z,24.85
2018-06-14T16:04:31.672Z,24.80
2018-06-14T16:06:59.712Z,24.90
2018-06-14T16:09:27.857Z,24.76
2018-06-14T16:11:55.981Z,24.68
2018-06-14T16:14:24.012Z,24.76
2018-06-14T16:16:52.033Z,24.72
2018-06-14T16:19:20.076Z,24.82
2018-06-14T16:21:48.089Z,24.92
2018-06-14T16:24:16.226Z,24.91
2018-06-14T16:26:44.252Z,24.63
2018-06-14T16:29:12.359Z,24.39
2018-06-14T16:31:40.380Z,23.95
2018-06-14T16:34:08.480Z,24.05
2018-06-14T16:36:36.493Z,23.94
2018-06-14T16:39:07.410Z,23.67
2018-06-14T16:41:35.457Z,23.60
2018-06-14T16:44:03.501Z,23.14
2018-06-14T16:46:31.522Z,23.05
2018-06-14T16:48:59.540Z,23.06
2018-06-14T16:51:27.554Z,22.83
2018-06-14T16:53:55.780Z,22.60
2018-06-14T16:56:23.811Z,22.38
2018-06-14T16:58:51.887Z,22.10
2018-06-14T17:01:19.954Z,21.86
2018-06-14T17:03:47.956Z,21.78
2018-06-14T17:06:16.053Z,21.21
2018-06-14T17:08:44.049Z,20.75
2018-06-14T17:11:12.193Z,20.42
2018-06-14T17:13:40.248Z,20.42
2018-06-14T17:16:08.321Z,20.17
2018-06-14T17:18:36.327Z,20.35
2018-06-14T17:21:04.401Z,20.01
2018-06-14T17:23:33.218Z,19.31
2018-06-14T17:26:01.564Z,18.91
2018-06-14T17:28:29.726Z,18.60
2018-06-14T17:30:57.765Z,18.52
2018-06-14T17:33:25.859Z,18.47
2018-06-14T17:35:53.881Z,18.32
2018-06-14T17:38:21.895Z,18.05
2018-06-14T17:40:49.965Z,18.10
2018-06-14T17:43:18.016Z,18.08
2018-06-14T17:45:46.201Z,18.01
2018-06-14T17:48:14.260Z,17.83
2018-06-14T17:50:42.785Z,17.94
2018-06-14T17:53:10.916Z,17.95
2018-06-14T17:55:38.943Z,18.02
2018-06-14T17:58:07.030Z,18.21
2018-06-14T18:00:35.128Z,18.00
2018-06-14T18:03:03.510Z,18.08
2018-06-14T18:05:31.597Z,18.22
2018-06-14T18:07:59.633Z,18.27
2018-06-14T18:10:27.655Z,18.16
2018-06-14T18:12:55.681Z,18.22
2018-06-14T18:15:23.726Z,18.32
2018-06-14T18:17:51.778Z,18.29
2018-06-14T18:20:19.753Z,18.35
2018-06-14T18:22:47.793Z,18.43
2018-06-14T18:25:15.843Z,18.48
2018-06-14T18:27:43.812Z,18.40
2018-06-14T18:30:11.884Z,18.45
2018-06-14T18:32:39.941Z,18.44
2018-06-14T18:35:07.958Z,18.56
2018-06-14T18:37:35.996Z,18.60
2018-06-14T18:40:04.189Z,18.65
2018-06-14T18:42:32.211Z,18.69
2018-06-14T18:45:00.277Z,18.75
2018-06-14T18:47:28.293Z,18.59
2018-06-14T18:49:56.320Z,18.68
2018-06-14T18:52:24.348Z,18.57
2018-06-14T18:54:52.393Z,18.75
2018-06-14T18:57:20.471Z,18.74
2018-06-14T18:59:48.465Z,18.71
2018-06-14T19:02:16.625Z,18.73
2018-06-14T19:04:44.648Z,18.78
2018-06-14T19:07:12.660Z,18.82
2018-06-14T19:09:40.680Z,18.91
2018-06-14T19:12:08.737Z,18.76
2018-06-14T19:14:36.812Z,18.78
2018-06-14T19:17:04.886Z,18.74
2018-06-14T19:19:32.904Z,18.53
2018-06-14T19:22:01.009Z,18.57
2018-06-14T19:24:29.013Z,18.46
2018-06-14T19:26:57.048Z,18.38
2018-06-14T19:29:25.182Z,18.28
2018-06-14T19:31:53.212Z,18.17
2018-06-14T19:34:21.230Z,18.18
2018-06-14T19:36:49.230Z,18.09
2018-06-14T19:39:17.220Z,18.00
2018-06-14T19:41:45.206Z,17.89
2018-06-14T19:44:13.216Z,17.90
2018-06-14T19:46:41.238Z,17.95
2018-06-14T19:49:09.254Z,17.94
2018-06-14T19:51:37.321Z,18.00
2018-06-14T19:54:05.366Z,17.86
2018-06-14T19:56:33.469Z,17.85
2018-06-14T19:59:01.530Z,17.79
2018-06-14T20:01:29.565Z,17.87
2018-06-14T20:03:57.577Z,17.76
2018-06-14T20:06:25.584Z,17.62
2018-06-14T20:08:53.596Z,17.73
2018-06-14T20:11:21.608Z,17.69
2018-06-14T20:13:49.593Z,17.73
2018-06-14T20:16:17.616Z,17.80
2018-06-14T20:18:45.659Z,17.93
2018-06-14T20:21:13.696Z,17.72
2018-06-14T20:23:41.731Z,17.78
2018-06-14T20:26:10.035Z,17.68
2018-06-14T20:28:38.017Z,17.65
2018-06-14T20:31:06.136Z,17.63
2018-06-14T20:33:34.137Z,17.71
2018-06-14T20:36:02.165Z,17.77
2018-06-14T20:38:30.237Z,17.85
2018-06-14T20:40:58.577Z,17.82
2018-06-14T20:43:26.634Z,17.66
2018-06-14T20:45:54.631Z,17.71
2018-06-14T20:48:22.628Z,17.77
2018-06-14T20:50:50.612Z,17.87
2018-06-14T20:53:18.669Z,17.84
2018-06-14T20:55:46.699Z,17.84
2018-06-14T20:58:14.697Z,17.86
2018-06-14T21:00:42.676Z,17.78
2018-06-14T21:03:10.668Z,17.61
2018-06-14T21:05:38.885Z,17.77
2018-06-14T21:08:06.936Z,17.86
2018-06-14T21:10:34.915Z,17.60
2018-06-14T21:13:02.921Z,17.56
2018-06-14T21:15:31.013Z,17.62
2018-06-14T21:17:59.145Z,17.58
2018-06-14T21:20:27.140Z,17.57
2018-06-14T21:22:55.161Z,17.51
2018-06-14T21:25:23.929Z,17.61
2018-06-14T21:27:51.973Z,17.61
2018-06-14T21:30:20.021Z,17.50
2018-06-14T21:32:48.038Z,17.55
2018-06-14T21:35:16.743Z,17.60
2018-06-14T21:37:44.840Z,17.47
2018-06-14T21:40:12.836Z,17.54
2018-06-14T21:42:40.981Z,17.57
2018-06-14T21:45:09.069Z,17.63
2018-06-14T21:47:37.307Z,17.49
2018-06-14T21:50:05.320Z,17.47
2018-06-14T21:52:33.324Z,17.56
2018-06-14T21:55:01.446Z,17.52
2018-06-14T21:57:29.444Z,17.41
2018-06-14T21:59:57.494Z,17.66
2018-06-14T22:02:25.640Z,17.56
2018-06-14T22:04:53.676Z,17.61
2018-06-14T22:07:21.745Z,17.68
2018-06-14T22:09:49.794Z,17.77
2018-06-14T22:12:17.892Z,17.78
2018-06-14T22:14:45.885Z,17.72
2018-06-14T22:17:13.909Z,17.85
2018-06-14T22:19:41.945Z,17.83
2018-06-14T22:22:10.102Z,17.89
2018-06-14T22:24:38.132Z,17.79
2018-06-14T22:27:06.184Z,17.88
2018-06-14T22:29:34.206Z,17.82
2018-06-14T22:32:02.191Z,17.89
2018-06-14T22:34:41.630Z,17.73
2018-06-14T22:37:09.631Z,17.89
2018-06-14T22:39:37.629Z,17.50
2018-06-14T22:42:05.612Z,17.60
2018-06-14T22:44:33.633Z,17.65
2018-06-14T22:47:01.622Z,17.67
2018-06-14T22:49:29.712Z,17.50
2018-06-14T22:53:12.977Z,17.64
2018-06-14T22:55:40.972Z,17.55
2018-06-14T22:58:08.980Z,17.69
2018-06-14T23:01:46.480Z,17.73
2018-06-14T23:04:15.972Z,17.78
2018-06-14T23:06:43.973Z,17.85
2018-06-14T23:10:25.359Z,17.85
2018-06-14T23:12:53.369Z,17.70
2018-06-14T23:15:21.679Z,17.63
2018-06-14T23:17:50.381Z,17.66
2018-06-14T23:20:19.585Z,17.83
2018-06-14T23:22:48.782Z,17.87
2018-06-14T23:25:17.392Z,17.84
2018-06-14T23:27:45.408Z,17.93
2018-06-14T23:30:13.421Z,17.74
2018-06-14T23:32:41.442Z,17.59
2018-06-14T23:35:09.485Z,17.73
2018-06-14T23:37:37.509Z,17.73
2018-06-14T23:40:05.561Z,17.77
2018-06-14T23:42:33.583Z,17.70
2018-06-14T23:45:01.638Z,17.81
2018-06-14T23:47:29.664Z,17.91
2018-06-14T23:49:57.750Z,17.62
2018-06-14T23:52:25.957Z,17.81
2018-06-14T23:54:54.010Z,17.85
2018-06-14T23:57:22.064Z,17.83
2018-06-14T23:59:50.661Z,17.76
